createdAt,value
2022-09-20T00:01:40.227Z,8.71
2022-09-20T00:04:09.255Z,8.64
2022-09-20T00:06:38.192Z,8.60
2022-09-20T00:09:07.286Z,8.56
2022-09-20T00:11:38.116Z,8.50
2022-09-20T00:14:09.534Z,8.42
2022-09-20T00:16:40.952Z,8.40
2022-09-20T00:19:10.602Z,8.28
2022-09-20T00:21:39.459Z,8.20
2022-09-20T00:24:08.499Z,8.14
2022-09-20T00:26:38.783Z,8.10
2022-09-20T00:29:09.020Z,8.08
2022-09-20T00:31:40.399Z,8.16
2022-09-20T00:34:27.712Z,8.31
2022-09-20T00:36:56.616Z,8.48
2022-09-20T00:39:25.523Z,8.60
2022-09-20T00:41:55.799Z,8.72
2022-09-20T00:44:52.173Z,8.82
2022-09-20T00:47:27.667Z,8.96
2022-09-20T00:50:04.621Z,8.86
2022-09-20T00:52:35.026Z,9.09
2022-09-20T00:55:08.697Z,9.13
2022-09-20T00:57:39.957Z,9.19
2022-09-20T01:00:12.810Z,9.22
2022-09-20T01:02:44.464Z,9.27
2022-09-20T01:05:16.023Z,9.30
2022-09-20T01:07:47.056Z,9.29
2022-09-20T01:10:16.192Z,9.18
2022-09-20T01:12:49.356Z,8.97
2022-09-20T01:15:19.243Z,8.77
2022-09-20T01:17:53.229Z,8.61
2022-09-20T01:20:25.756Z,8.49
2022-09-20T01:23:32.521Z,8.41
2022-09-20T01:26:30.896Z,8.33
2022-09-20T01:29:11.497Z,8.34
2022-09-20T01:31:46.225Z,8.29
2022-09-20T01:34:19.112Z,8.29
2022-09-20T01:36:56.133Z,8.26
2022-09-20T01:39:35.269Z,8.21
2022-09-20T01:42:08.951Z,8.12
2022-09-20T01:44:46.968Z,8.08
2022-09-20T01:47:29.016Z,8.02
2022-09-20T01:50:04.333Z,7.96
2022-09-20T01:53:02.864Z,7.97
2022-09-20T01:56:16.058Z,7.99
2022-09-20T01:59:23.685Z,7.90
2022-09-20T02:02:29.466Z,7.82
2022-09-20T02:05:46.236Z,7.75
2022-09-20T02:09:12.305Z,7.65
2022-09-20T02:12:00.192Z,7.57
2022-09-20T02:14:41.919Z,7.52
2022-09-20T02:17:14.777Z,7.48
2022-09-20T02:20:09.554Z,7.39
2022-09-20T02:23:04.305Z,7.35
2022-09-20T02:25:59.157Z,7.32
2022-09-20T02:28:45.678Z,7.29
2022-09-20T02:31:24.305Z,7.29
2022-09-20T02:34:16.715Z,7.30
2022-09-20T02:36:57.327Z,7.35
2022-09-20T02:39:35.432Z,7.34
2022-09-20T02:42:10.638Z,7.28
2022-09-20T02:44:53.595Z,7.22
2022-09-20T02:47:29.056Z,7.17
2022-09-20T02:50:20.814Z,7.14
2022-09-20T02:53:01.894Z,7.12
2022-09-20T02:55:41.799Z,7.08
2022-09-20T02:58:24.670Z,7.06
2022-09-20T03:01:05.345Z,7.03
2022-09-20T03:03:44.379Z,7.00
2022-09-20T03:06:23.444Z,6.99
2022-09-20T03:09:00.104Z,6.97
2022-09-20T03:11:35.683Z,6.98
2022-09-20T03:14:14.838Z,6.97
2022-09-20T03:17:05.735Z,6.93
2022-09-20T03:20:01.463Z,6.89
2022-09-20T03:22:47.209Z,6.83
2022-09-20T03:25:39.289Z,6.79
2022-09-20T03:28:24.987Z,6.75
2022-09-20T03:31:02.139Z,6.72
2022-09-20T03:33:45.853Z,6.70
2022-09-20T03:36:40.382Z,6.72
2022-09-20T03:39:26.987Z,6.73
2022-09-20T03:42:17.229Z,6.77
2022-09-20T03:45:38.650Z,6.77
2022-09-20T03:48:37.100Z,6.71
2022-09-20T03:51:23.774Z,6.69
2022-09-20T03:54:25.980Z,6.67
2022-09-20T03:57:31.065Z,6.68
2022-09-20T04:00:16.324Z,6.64
2022-09-20T04:03:13.376Z,6.64
2022-09-20T04:06:00.234Z,6.61
2022-09-20T04:08:49.185Z,6.61
2022-09-20T04:11:27.420Z,6.61
2022-09-20T04:14:10.622Z,6.62
2022-09-20T04:16:51.720Z,6.44
2022-09-20T04:19:32.847Z,6.60
2022-09-20T04:22:07.557Z,6.64
2022-09-20T04:24:46.016Z,6.63
2022-09-20T04:27:21.618Z,6.61
2022-09-20T04:29:56.826Z,6.63
2022-09-20T04:32:32.008Z,6.61
2022-09-20T04:35:24.540Z,6.63
2022-09-20T04:37:54.785Z,6.65
2022-09-20T04:40:46.160Z,6.42
2022-09-20T04:43:48.147Z,6.70
2022-09-20T04:46:55.907Z,6.72
2022-09-20T04:50:07.920Z,6.70
2022-09-20T04:53:08.809Z,6.74
2022-09-20T04:55:53.162Z,6.81
2022-09-20T04:58:52.473Z,7.00
2022-09-20T05:02:09.264Z,7.11
2022-09-20T05:05:11.518Z,7.14
2022-09-20T05:08:26.675Z,7.08
2022-09-20T05:11:32.372Z,7.04
2022-09-20T05:14:26.361Z,7.03
2022-09-20T05:17:16.341Z,7.02
2022-09-20T05:20:16.917Z,7.07
2022-09-20T05:23:19.131Z,7.06
2022-09-20T05:26:12.221Z,7.06
2022-09-20T05:28:51.483Z,7.08
2022-09-20T05:31:38.246Z,7.16
2022-09-20T05:34:18.151Z,7.25
2022-09-20T05:36:57.952Z,7.42
2022-09-20T05:39:39.579Z,7.54
2022-09-20T05:42:18.475Z,7.88
2022-09-20T05:44:59.035Z,8.03
2022-09-20T05:47:38.969Z,8.20
2022-09-20T05:50:38.010Z,8.43
2022-09-20T05:53:35.525Z,8.63
2022-09-20T05:56:17.922Z,8.73
2022-09-20T05:59:02.589Z,8.82
2022-09-20T06:01:36.882Z,8.86
2022-09-20T06:04:17.697Z,8.95
2022-09-20T06:06:59.236Z,8.84
2022-09-20T06:10:02.634Z,9.21
2022-09-20T06:12:50.116Z,9.52
2022-09-20T06:15:28.486Z,9.74
2022-09-20T06:18:05.381Z,9.89
2022-09-20T06:20:44.495Z,10.01
2022-09-20T06:23:15.182Z,10.11
2022-09-20T06:25:49.905Z,10.27
2022-09-20T06:28:20.955Z,10.51
2022-09-20T06:30:51.975Z,10.59
2022-09-20T06:33:22.638Z,10.68
2022-09-20T06:36:22.147Z,10.66
2022-09-20T06:39:22.802Z,10.74
2022-09-20T06:41:52.368Z,10.82
2022-09-20T06:44:21.287Z,11.10
2022-09-20T06:46:54.450Z,11.24
2022-09-20T06:49:24.175Z,11.37
2022-09-20T06:51:55.948Z,11.28
2022-09-20T06:54:27.200Z,11.22
2022-09-20T06:56:56.112Z,11.24
2022-09-20T06:59:24.956Z,11.26
2022-09-20T07:01:53.919Z,11.27
2022-09-20T07:04:27.036Z,11.40
2022-09-20T07:07:03.302Z,11.50
2022-09-20T07:09:35.344Z,11.54
2022-09-20T07:12:04.700Z,11.82
2022-09-20T07:14:33.592Z,12.17
2022-09-20T07:17:03.489Z,12.48
2022-09-20T07:19:32.382Z,12.69
2022-09-20T07:22:02.570Z,12.84
2022-09-20T07:24:32.373Z,13.01
2022-09-20T07:27:02.763Z,13.25
2022-09-20T07:29:32.743Z,13.43
2022-09-20T07:32:01.934Z,13.38
2022-09-20T07:34:30.890Z,13.39
2022-09-20T07:37:01.194Z,13.66
2022-09-20T07:39:30.112Z,13.92
2022-09-20T07:41:58.911Z,13.69
2022-09-20T07:44:28.131Z,13.58
2022-09-20T07:46:59.196Z,13.59
2022-09-20T07:49:30.340Z,13.60
2022-09-20T07:51:59.381Z,13.62
2022-09-20T07:54:29.604Z,13.57
2022-09-20T07:56:58.703Z,13.69
2022-09-20T07:59:27.556Z,13.81
2022-09-20T08:01:57.790Z,13.72
2022-09-20T08:04:26.694Z,13.77
2022-09-20T08:06:55.561Z,13.64
2022-09-20T08:09:24.418Z,13.35
2022-09-20T08:11:56.487Z,13.34
2022-09-20T08:14:25.615Z,13.32
2022-09-20T08:16:58.319Z,13.27
2022-09-20T08:19:27.765Z,13.35
2022-09-20T08:21:56.590Z,13.59
2022-09-20T08:24:27.264Z,13.64
2022-09-20T08:26:57.565Z,13.78
2022-09-20T08:29:26.455Z,13.98
2022-09-20T08:31:58.387Z,13.74
2022-09-20T08:34:27.477Z,13.24
2022-09-20T08:36:56.712Z,12.89
2022-09-20T08:42:33.626Z,12.97
2022-09-20T08:45:06.692Z,12.83
2022-09-20T08:47:38.330Z,12.71
2022-09-20T08:50:17.324Z,12.55
2022-09-20T08:52:49.440Z,12.58
2022-09-20T08:55:20.744Z,12.53
2022-09-20T08:57:54.028Z,12.68
2022-09-20T09:00:25.380Z,12.77
2022-09-20T09:02:58.332Z,13.11
2022-09-20T09:05:33.760Z,14.06
2022-09-20T09:08:07.594Z,14.85
2022-09-20T09:10:43.319Z,14.80
2022-09-20T09:13:21.910Z,14.48
2022-09-20T09:15:57.299Z,14.20
2022-09-20T09:18:36.193Z,14.11
2022-09-20T09:21:07.893Z,14.08
2022-09-20T09:23:42.675Z,14.03
2022-09-20T09:26:21.547Z,13.84
2022-09-20T09:29:10.893Z,13.63
2022-09-20T09:31:40.170Z,13.57
2022-09-20T09:34:26.295Z,14.05
2022-09-20T09:36:55.945Z,14.69
2022-09-20T09:39:27.490Z,14.99
2022-09-20T09:41:57.330Z,15.32
2022-09-20T09:44:29.299Z,15.64
2022-09-20T09:46:58.714Z,15.76
2022-09-20T09:49:29.469Z,15.86
2022-09-20T09:52:08.187Z,15.89
2022-09-20T09:54:39.775Z,15.74
2022-09-20T09:57:30.629Z,15.57
2022-09-20T10:00:19.171Z,15.71
2022-09-20T10:03:07.617Z,15.81
2022-09-20T10:05:45.430Z,15.59
2022-09-20T10:08:26.933Z,15.31
2022-09-20T10:11:15.234Z,15.29
2022-09-20T10:13:54.109Z,15.45
2022-09-20T10:16:45.574Z,15.82
2022-09-20T10:19:25.323Z,15.99
2022-09-20T10:22:09.421Z,16.08
2022-09-20T10:24:51.617Z,16.10
2022-09-20T10:27:32.296Z,16.18
2022-09-20T10:30:10.186Z,16.50
2022-09-20T10:32:59.549Z,16.20
2022-09-20T10:35:48.599Z,15.45
2022-09-20T10:38:23.607Z,14.86
2022-09-20T10:41:31.885Z,14.61
2022-09-20T10:44:33.644Z,14.66
2022-09-20T10:47:09.173Z,14.90
2022-09-20T10:49:50.412Z,15.28
2022-09-20T10:52:39.114Z,15.64
2022-09-20T10:55:27.537Z,16.02
2022-09-20T10:58:31.687Z,16.07
2022-09-20T11:01:10.504Z,15.71
2022-09-20T11:04:18.794Z,15.56
2022-09-20T11:06:56.013Z,15.54
2022-09-20T11:09:31.344Z,16.03
2022-09-20T11:12:11.375Z,16.29
2022-09-20T11:14:44.583Z,16.59
2022-09-20T11:17:21.873Z,16.73
2022-09-20T11:20:03.544Z,16.96
2022-09-20T11:22:45.891Z,17.03
2022-09-20T11:25:21.553Z,17.60
2022-09-20T11:27:56.736Z,17.46
2022-09-20T11:30:26.588Z,16.53
2022-09-20T11:33:00.812Z,14.36
2022-09-20T11:35:34.290Z,11.94
2022-09-20T11:38:14.305Z,10.71
2022-09-20T11:40:48.805Z,10.52
2022-09-20T11:43:21.551Z,10.16
2022-09-20T11:45:56.457Z,9.83
2022-09-20T11:48:30.686Z,9.71
2022-09-20T11:51:31.421Z,9.40
2022-09-20T11:54:25.752Z,9.36
2022-09-20T11:56:57.202Z,9.41
2022-09-20T11:59:31.801Z,9.53
2022-09-20T12:02:03.592Z,9.66
2022-09-20T12:04:36.308Z,9.83
2022-09-20T12:07:18.110Z,10.00
2022-09-20T12:09:55.527Z,10.18
2022-09-20T12:12:37.424Z,10.40
2022-09-20T12:15:08.816Z,10.61
2022-09-20T12:18:09.636Z,10.80
2022-09-20T12:21:08.127Z,11.08
2022-09-20T12:24:22.735Z,11.54
2022-09-20T12:26:58.088Z,11.95
2022-09-20T12:29:57.396Z,12.30
2022-09-20T12:32:52.105Z,12.51
2022-09-20T12:36:00.685Z,12.62
2022-09-20T12:38:58.959Z,12.63
2022-09-20T12:41:29.150Z,12.55
2022-09-20T12:44:06.850Z,12.43
2022-09-20T12:46:50.960Z,12.28
2022-09-20T12:49:49.370Z,12.18
2022-09-20T12:52:58.239Z,12.17
2022-09-20T12:55:45.734Z,12.42
2022-09-20T12:58:36.678Z,12.83
2022-09-20T13:01:38.290Z,12.90
2022-09-20T13:04:43.773Z,12.53
2022-09-20T13:07:44.441Z,12.30
2022-09-20T13:10:43.013Z,12.17
2022-09-20T13:13:27.026Z,12.06
2022-09-20T13:15:57.084Z,12.06
2022-09-20T13:18:28.943Z,12.15
2022-09-20T13:21:00.429Z,12.18
2022-09-20T13:23:34.256Z,12.06
2022-09-20T13:26:05.286Z,12.05
2022-09-20T13:28:40.894Z,12.02
2022-09-20T13:31:30.087Z,12.18
2022-09-20T13:34:16.663Z,12.43
2022-09-20T13:36:55.866Z,12.53
2022-09-20T13:39:36.974Z,12.73
2022-09-20T13:42:14.921Z,12.93
2022-09-20T13:44:44.859Z,13.16
2022-09-20T13:47:28.407Z,13.31
2022-09-20T13:50:11.844Z,13.22
2022-09-20T13:52:47.350Z,13.25
2022-09-20T13:55:38.836Z,13.14
2022-09-20T13:58:12.362Z,13.19
2022-09-20T14:00:48.718Z,13.38
2022-09-20T14:03:19.827Z,13.38
2022-09-20T14:05:52.433Z,13.42
2022-09-20T14:08:25.706Z,13.72
2022-09-20T14:11:07.420Z,13.84
2022-09-20T14:13:43.638Z,13.51
2022-09-20T14:16:16.126Z,13.60
2022-09-20T14:18:47.263Z,13.82
2022-09-20T14:21:25.625Z,13.58
2022-09-20T14:24:02.206Z,13.71
2022-09-20T14:26:35.066Z,13.82
2022-09-20T14:29:31.853Z,13.67
2022-09-20T14:32:16.070Z,13.64
2022-09-20T14:34:46.954Z,13.51
2022-09-20T14:37:23.926Z,13.39
2022-09-20T14:39:59.461Z,13.28
2022-09-20T14:42:39.662Z,13.19
2022-09-20T14:45:22.786Z,13.11
2022-09-20T14:47:57.233Z,12.85
2022-09-20T14:50:29.970Z,12.77
2022-09-20T14:53:22.558Z,12.62
2022-09-20T14:56:09.099Z,12.58
2022-09-20T14:59:22.467Z,12.24
2022-09-20T15:02:03.521Z,12.27
2022-09-20T15:04:35.511Z,12.26
2022-09-20T15:07:06.769Z,12.30
2022-09-20T15:09:37.209Z,12.35
2022-09-20T15:12:07.934Z,12.38
2022-09-20T15:14:43.679Z,12.36
2022-09-20T15:17:16.824Z,12.35
2022-09-20T15:19:53.016Z,12.36
2022-09-20T15:22:23.499Z,12.38
2022-09-20T15:24:53.816Z,12.42
2022-09-20T15:27:27.557Z,12.48
2022-09-20T15:29:57.476Z,12.49
2022-09-20T15:32:26.952Z,12.57
2022-09-20T15:34:56.325Z,12.54
2022-09-20T15:37:25.443Z,12.49
2022-09-20T15:39:56.054Z,12.48
2022-09-20T15:42:24.984Z,12.50
2022-09-20T15:44:53.793Z,12.43
2022-09-20T15:47:22.715Z,12.41
2022-09-20T15:49:52.934Z,12.37
2022-09-20T15:52:25.526Z,12.41
2022-09-20T15:54:59.567Z,12.37
2022-09-20T15:57:30.483Z,12.40
2022-09-20T16:00:00.069Z,12.46
2022-09-20T16:02:29.726Z,12.56
2022-09-20T16:04:59.699Z,12.77
2022-09-20T16:07:28.657Z,12.85
2022-09-20T16:10:02.006Z,12.69
2022-09-20T16:12:31.265Z,12.22
2022-09-20T16:15:00.208Z,12.64
2022-09-20T16:17:42.976Z,12.69
2022-09-20T16:20:12.345Z,12.69
2022-09-20T16:22:41.412Z,12.56
2022-09-20T16:25:11.776Z,12.56
2022-09-20T16:27:40.819Z,12.40
2022-09-20T16:30:10.767Z,12.35
2022-09-20T16:32:39.578Z,12.22
2022-09-20T16:35:09.246Z,12.23
2022-09-20T16:37:39.386Z,12.19
2022-09-20T16:40:14.336Z,12.13
2022-09-20T16:42:52.102Z,12.00
2022-09-20T16:45:21.502Z,11.86
2022-09-20T16:47:50.360Z,11.76
2022-09-20T16:50:19.446Z,11.73
2022-09-20T16:52:48.281Z,11.72
2022-09-20T16:55:20.761Z,11.56
2022-09-20T16:57:51.751Z,11.57
2022-09-20T17:00:22.436Z,11.39
2022-09-20T17:02:51.585Z,11.25
2022-09-20T17:05:20.379Z,11.14
2022-09-20T17:07:49.323Z,10.97
2022-09-20T17:10:20.131Z,10.85
2022-09-20T17:12:52.528Z,10.74
2022-09-20T17:15:21.521Z,10.69
2022-09-20T17:17:50.510Z,10.61
2022-09-20T17:20:19.420Z,10.51
2022-09-20T17:22:48.186Z,10.45
2022-09-20T17:25:18.553Z,10.33
2022-09-20T17:27:48.049Z,10.23
2022-09-20T17:30:17.620Z,10.14
2022-09-20T17:32:48.224Z,10.01
2022-09-20T17:35:18.569Z,9.96
2022-09-20T17:37:47.517Z,9.87
2022-09-20T17:40:36.239Z,9.70
2022-09-20T17:43:05.155Z,9.64
2022-09-20T17:45:35.084Z,9.65
2022-09-20T17:48:04.814Z,9.55
2022-09-20T17:50:33.744Z,8.98
2022-09-20T17:53:02.586Z,9.23
2022-09-20T17:55:31.470Z,9.18
2022-09-20T17:58:01.659Z,9.17
2022-09-20T18:00:30.637Z,9.17
2022-09-20T18:03:02.806Z,9.12
2022-09-20T18:05:49.495Z,9.00
2022-09-20T18:08:19.322Z,8.93
2022-09-20T18:10:56.894Z,8.84
2022-09-20T18:13:29.654Z,8.76
2022-09-20T18:15:59.197Z,8.67
2022-09-20T18:18:28.034Z,8.57
2022-09-20T18:20:56.938Z,8.12
2022-09-20T18:23:25.774Z,8.44
2022-09-20T18:26:12.470Z,8.42
2022-09-20T18:28:44.927Z,8.38
2022-09-20T18:31:17.889Z,8.32
2022-09-20T18:33:47.259Z,8.24
2022-09-20T18:36:18.443Z,8.18
2022-09-20T18:38:47.546Z,8.15
2022-09-20T18:41:16.626Z,8.11
2022-09-20T18:43:48.671Z,8.12
2022-09-20T18:46:19.363Z,8.15
2022-09-20T18:48:48.599Z,8.15
2022-09-20T18:51:17.522Z,8.20
2022-09-20T18:53:46.703Z,8.26
2022-09-20T18:56:23.367Z,8.39
2022-09-20T18:58:55.503Z,8.47
2022-09-20T19:01:53.382Z,8.52
2022-09-20T19:04:52.687Z,8.46
2022-09-20T19:08:15.562Z,7.44
2022-09-20T19:10:52.979Z,8.33
2022-09-20T19:13:35.870Z,8.28
2022-09-20T19:16:21.217Z,8.22
2022-09-20T19:19:16.588Z,8.19
2022-09-20T19:21:57.119Z,8.15
2022-09-20T19:24:39.112Z,8.13
2022-09-20T19:27:11.163Z,8.10
2022-09-20T19:29:42.246Z,8.05
2022-09-20T19:32:18.857Z,8.00
2022-09-20T19:34:51.223Z,7.97
2022-09-20T19:37:30.456Z,7.97
2022-09-20T19:40:27.200Z,7.96
2022-09-20T19:43:13.214Z,8.02
2022-09-20T19:45:51.759Z,8.09
2022-09-20T19:48:34.009Z,8.16
2022-09-20T19:51:08.198Z,8.28
2022-09-20T19:53:37.534Z,8.35
2022-09-20T19:56:19.133Z,8.42
2022-09-20T19:58:52.977Z,8.02
2022-09-20T20:01:23.495Z,8.49
2022-09-20T20:03:55.389Z,8.59
2022-09-20T20:06:31.672Z,8.71
2022-09-20T20:09:06.818Z,8.79
2022-09-20T20:11:42.993Z,8.89
2022-09-20T20:14:22.766Z,8.92
2022-09-20T20:17:04.209Z,8.97
2022-09-20T20:20:03.888Z,8.98
2022-09-20T20:22:52.360Z,8.99
2022-09-20T20:25:30.165Z,8.95
2022-09-20T20:27:59.116Z,8.88
2022-09-20T20:30:27.940Z,8.80
2022-09-20T20:32:58.758Z,8.69
2022-09-20T20:35:29.300Z,8.57
2022-09-20T20:37:58.245Z,8.47
2022-09-20T20:40:27.411Z,8.40
2022-09-20T20:43:02.320Z,8.37
2022-09-20T20:45:31.477Z,8.31
2022-09-20T20:48:01.076Z,8.29
2022-09-20T20:50:31.444Z,8.26
2022-09-20T20:53:00.315Z,8.26
2022-09-20T20:55:29.182Z,8.23
2022-09-20T20:57:58.589Z,8.22
2022-09-20T21:00:28.276Z,8.22
2022-09-20T21:03:01.344Z,8.29
2022-09-20T21:05:32.023Z,8.32
2022-09-20T21:08:01.298Z,8.29
2022-09-20T21:10:30.140Z,8.26
2022-09-20T21:13:00.298Z,8.24
2022-09-20T21:15:29.297Z,8.23
2022-09-20T21:17:58.196Z,8.23
2022-09-20T21:20:27.761Z,8.19
2022-09-20T21:22:59.581Z,8.16
2022-09-20T21:25:28.886Z,8.08
2022-09-20T21:27:59.319Z,8.01
2022-09-20T21:30:28.465Z,8.02
2022-09-20T21:32:59.756Z,8.03
2022-09-20T21:35:29.436Z,8.04
2022-09-20T21:37:59.725Z,7.97
2022-09-20T21:40:28.635Z,7.90
2022-09-20T21:42:57.536Z,7.82
2022-09-20T21:45:29.357Z,7.75
2022-09-20T21:47:58.336Z,7.63
2022-09-20T21:50:27.225Z,7.52
2022-09-20T21:52:56.126Z,7.44
2022-09-20T21:55:26.781Z,7.36
2022-09-20T21:57:55.825Z,7.30
2022-09-20T22:00:26.372Z,7.27
2022-09-20T22:02:59.027Z,7.23
2022-09-20T22:05:27.985Z,7.17
2022-09-20T22:07:58.565Z,7.14
2022-09-20T22:10:28.840Z,7.07
2022-09-20T22:12:57.759Z,7.02
2022-09-20T22:15:26.699Z,6.98
2022-09-20T22:17:56.835Z,6.93
2022-09-20T22:20:25.824Z,6.88
2022-09-20T22:22:54.678Z,6.83
2022-09-20T22:25:24.246Z,6.80
2022-09-20T22:27:54.441Z,6.76
2022-09-20T22:30:23.337Z,6.73
2022-09-20T22:32:52.205Z,6.71
2022-09-20T22:35:21.094Z,6.69
2022-09-20T22:37:49.978Z,6.68
2022-09-20T22:40:19.862Z,6.65
2022-09-20T22:42:48.784Z,6.63
2022-09-20T22:45:19.186Z,6.64
2022-09-20T22:47:48.027Z,6.65
2022-09-20T22:50:17.045Z,6.64
2022-09-20T22:52:45.949Z,6.63
2022-09-20T22:55:14.899Z,6.63
2022-09-20T22:57:43.787Z,6.60
2022-09-20T23:00:13.861Z,6.54
2022-09-20T23:02:44.144Z,6.49
2022-09-20T23:05:13.024Z,6.46
2022-09-20T23:07:41.923Z,6.42
2022-09-20T23:10:11.210Z,6.41
2022-09-20T23:12:40.117Z,6.42
2022-09-20T23:15:11.804Z,6.43
2022-09-20T23:17:44.217Z,6.42
2022-09-20T23:20:13.085Z,6.48
2022-09-20T23:22:42.091Z,6.65
2022-09-20T23:25:11.537Z,6.83
2022-09-20T23:27:40.480Z,6.96
2022-09-20T23:30:10.245Z,7.04
2022-09-20T23:32:39.303Z,7.06
2022-09-20T23:35:10.281Z,7.08
2022-09-20T23:37:39.932Z,7.02
2022-09-20T23:40:10.162Z,6.95
2022-09-20T23:42:39.103Z,6.82
2022-09-20T23:45:09.769Z,6.73
2022-09-20T23:47:38.811Z,6.66
2022-09-20T23:50:09.532Z,6.65
2022-09-20T23:52:38.464Z,6.60
2022-09-20T23:55:08.017Z,6.55
2022-09-20T23:57:38.183Z,6.51
